sensor_id;sensor_type;location;lat;lon;timestamp;temperature;humidity
15357;DHT22;7778;48.792;9.260;2022-10-17T00:00:34;14.20;99.90
15357;DHT22;7778;48.792;9.260;2022-10-17T00:03:20;14.10;99.90
15357;DHT22;7778;48.792;9.260;2022-10-17T00:06:10;14.10;99.90
15357;DHT22;7778;48.792;9.260;2022-10-17T00:08:56;14.10;99.90
15357;DHT22;7778;48.792;9.260;2022-10-17T00:11:42;14.00;99.90
15357;DHT22;7778;48.792;9.260;2022-10-17T00:14:28;13.90;99.90
15357;DHT22;7778;48.792;9.260;2022-10-17T00:17:13;13.90;99.90
15357;DHT22;7778;48.792;9.260;2022-10-17T00:19:59;14.00;99.90
15357;DHT22;7778;48.792;9.260;2022-10-17T00:22:46;14.00;99.90
15357;DHT22;7778;48.792;9.260;2022-10-17T00:25:33;14.00;99.90
15357;DHT22;7778;48.792;9.260;2022-10-17T00:28:18;14.00;99.90
15357;DHT22;7778;48.792;9.260;2022-10-17T00:31:05;14.00;99.90
15357;DHT22;7778;48.792;9.260;2022-10-17T00:33:52;14.00;99.90
15357;DHT22;7778;48.792;9.260;2022-10-17T00:36:38;13.90;99.90
15357;DHT22;7778;48.792;9.260;2022-10-17T00:39:25;13.90;99.90
15357;DHT22;7778;48.792;9.260;2022-10-17T00:42:11;13.90;99.90
15357;DHT22;7778;48.792;9.260;2022-10-17T00:45:03;13.80;99.90
15357;DHT22;7778;48.792;9.260;2022-10-17T00:48:03;13.80;99.90
15357;DHT22;7778;48.792;9.260;2022-10-17T00:50:51;13.80;99.90
15357;DHT22;7778;48.792;9.260;2022-10-17T00:53:38;13.80;99.90
15357;DHT22;7778;48.792;9.260;2022-10-17T00:56:25;13.80;99.90
15357;DHT22;7778;48.792;9.260;2022-10-17T00:59:12;13.80;99.90
15357;DHT22;7778;48.792;9.260;2022-10-17T01:02:02;13.80;99.90
15357;DHT22;7778;48.792;9.260;2022-10-17T01:04:50;13.70;99.90
15357;DHT22;7778;48.792;9.260;2022-10-17T01:07:38;13.70;99.90
15357;DHT22;7778;48.792;9.260;2022-10-17T01:10:29;13.60;99.90
15357;DHT22;7778;48.792;9.260;2022-10-17T01:13:24;13.50;99.90
15357;DHT22;7778;48.792;9.260;2022-10-17T01:16:17;13.50;99.90
15357;DHT22;7778;48.792;9.260;2022-10-17T01:19:33;13.50;99.90
15357;DHT22;7778;48.792;9.260;2022-10-17T01:22:26;13.50;99.90
15357;DHT22;7778;48.792;9.260;2022-10-17T01:25:25;13.40;99.90
15357;DHT22;7778;48.792;9.260;2022-10-17T01:28:23;13.40;99.90
15357;DHT22;7778;48.792;9.260;2022-10-17T01:31:21;13.40;99.90
15357;DHT22;7778;48.792;9.260;2022-10-17T01:34:13;13.40;99.90
15357;DHT22;7778;48.792;9.260;2022-10-17T01:37:04;13.40;99.90
15357;DHT22;7778;48.792;9.260;2022-10-17T01:39:58;13.40;99.90
15357;DHT22;7778;48.792;9.260;2022-10-17T01:42:54;13.40;99.90
15357;DHT22;7778;48.792;9.260;2022-10-17T01:45:44;13.50;99.90
15357;DHT22;7778;48.792;9.260;2022-10-17T01:48:37;13.40;99.90
15357;DHT22;7778;48.792;9.260;2022-10-17T01:51:27;13.40;99.90
15357;DHT22;7778;48.792;9.260;2022-10-17T01:54:18;13.30;99.90
15357;DHT22;7778;48.792;9.260;2022-10-17T01:57:10;13.30;99.90
15357;DHT22;7778;48.792;9.260;2022-10-17T02:00:02;13.40;99.90
15357;DHT22;7778;48.792;9.260;2022-10-17T02:02:51;13.40;99.90
15357;DHT22;7778;48.792;9.260;2022-10-17T02:05:42;13.40;99.90
15357;DHT22;7778;48.792;9.260;2022-10-17T02:08:39;13.40;99.90
15357;DHT22;7778;48.792;9.260;2022-10-17T02:11:26;13.30;99.90
15357;DHT22;7778;48.792;9.260;2022-10-17T02:14:21;13.30;99.90
15357;DHT22;7778;48.792;9.260;2022-10-17T02:17:15;13.40;99.90
15357;DHT22;7778;48.792;9.260;2022-10-17T02:20:14;13.20;99.90
15357;DHT22;7778;48.792;9.260;2022-10-17T02:23:08;13.20;99.90
15357;DHT22;7778;48.792;9.260;2022-10-17T02:26:01;13.20;99.90
15357;DHT22;7778;48.792;9.260;2022-10-17T02:29:02;13.40;99.90
15357;DHT22;7778;48.792;9.260;2022-10-17T02:31:55;13.20;99.90
15357;DHT22;7778;48.792;9.260;2022-10-17T02:34:45;13.10;99.90
15357;DHT22;7778;48.792;9.260;2022-10-17T02:37:31;13.20;99.90
15357;DHT22;7778;48.792;9.260;2022-10-17T02:40:21;13.10;99.90
15357;DHT22;7778;48.792;9.260;2022-10-17T02:43:09;13.00;99.90
15357;DHT22;7778;48.792;9.260;2022-10-17T02:45:55;13.00;99.90
15357;DHT22;7778;48.792;9.260;2022-10-17T02:48:46;13.00;99.90
15357;DHT22;7778;48.792;9.260;2022-10-17T02:51:40;13.10;99.90
15357;DHT22;7778;48.792;9.260;2022-10-17T02:54:32;13.00;99.90
15357;DHT22;7778;48.792;9.260;2022-10-17T02:57:26;12.90;99.90
15357;DHT22;7778;48.792;9.260;2022-10-17T03:00:15;12.90;99.90
15357;DHT22;7778;48.792;9.260;2022-10-17T03:03:17;12.90;99.90
15357;DHT22;7778;48.792;9.260;2022-10-17T03:06:05;12.80;99.90
15357;DHT22;7778;48.792;9.260;2022-10-17T03:08:50;12.70;99.90
15357;DHT22;7778;48.792;9.260;2022-10-17T03:11:36;12.70;99.90
15357;DHT22;7778;48.792;9.260;2022-10-17T03:14:23;12.70;99.90
15357;DHT22;7778;48.792;9.260;2022-10-17T03:17:09;12.70;99.90
15357;DHT22;7778;48.792;9.260;2022-10-17T03:19:55;12.60;99.90
15357;DHT22;7778;48.792;9.260;2022-10-17T03:22:40;12.60;99.90
15357;DHT22;7778;48.792;9.260;2022-10-17T03:25:26;12.50;99.90
15357;DHT22;7778;48.792;9.260;2022-10-17T03:28:12;12.50;99.90
15357;DHT22;7778;48.792;9.260;2022-10-17T03:30:59;12.50;99.90
15357;DHT22;7778;48.792;9.260;2022-10-17T03:33:51;12.50;99.90
15357;DHT22;7778;48.792;9.260;2022-10-17T03:36:37;12.40;99.90
15357;DHT22;7778;48.792;9.260;2022-10-17T03:39:23;12.50;99.90
15357;DHT22;7778;48.792;9.260;2022-10-17T03:42:08;12.40;99.90
15357;DHT22;7778;48.792;9.260;2022-10-17T03:44:54;12.40;99.90
15357;DHT22;7778;48.792;9.260;2022-10-17T03:47:41;12.30;99.90
15357;DHT22;7778;48.792;9.260;2022-10-17T03:50:27;12.30;99.90
15357;DHT22;7778;48.792;9.260;2022-10-17T03:53:12;12.30;99.90
15357;DHT22;7778;48.792;9.260;2022-10-17T03:56:08;12.20;99.90
15357;DHT22;7778;48.792;9.260;2022-10-17T03:58:55;12.20;99.90
15357;DHT22;7778;48.792;9.260;2022-10-17T04:01:41;12.20;99.90
15357;DHT22;7778;48.792;9.260;2022-10-17T04:04:28;12.30;99.90
15357;DHT22;7778;48.792;9.260;2022-10-17T04:07:14;12.50;99.90
15357;DHT22;7778;48.792;9.260;2022-10-17T04:09:59;12.80;99.90
15357;DHT22;7778;48.792;9.260;2022-10-17T04:12:45;13.10;99.90
15357;DHT22;7778;48.792;9.260;2022-10-17T04:15:30;13.20;99.90
15357;DHT22;7778;48.792;9.260;2022-10-17T04:18:16;13.20;99.90
15357;DHT22;7778;48.792;9.260;2022-10-17T04:21:03;13.30;99.90
15357;DHT22;7778;48.792;9.260;2022-10-17T04:23:52;13.40;99.90
15357;DHT22;7778;48.792;9.260;2022-10-17T04:26:39;13.40;99.90
15357;DHT22;7778;48.792;9.260;2022-10-17T04:29:24;13.20;99.90
15357;DHT22;7778;48.792;9.260;2022-10-17T04:32:10;13.20;99.90
15357;DHT22;7778;48.792;9.260;2022-10-17T04:34:56;13.20;99.90
15357;DHT22;7778;48.792;9.260;2022-10-17T04:37:43;13.30;99.90
15357;DHT22;7778;48.792;9.260;2022-10-17T04:40:28;13.10;99.90
15357;DHT22;7778;48.792;9.260;2022-10-17T04:43:14;13.00;99.90
15357;DHT22;7778;48.792;9.260;2022-10-17T04:46:01;13.00;99.90
15357;DHT22;7778;48.792;9.260;2022-10-17T04:48:48;12.90;99.90
15357;DHT22;7778;48.792;9.260;2022-10-17T04:51:34;12.90;99.90
15357;DHT22;7778;48.792;9.260;2022-10-17T04:54:21;12.80;99.90
15357;DHT22;7778;48.792;9.260;2022-10-17T04:57:07;12.80;99.90
15357;DHT22;7778;48.792;9.260;2022-10-17T04:59:52;13.00;99.90
15357;DHT22;7778;48.792;9.260;2022-10-17T05:02:38;13.00;99.90
15357;DHT22;7778;48.792;9.260;2022-10-17T05:05:24;13.20;99.90
15357;DHT22;7778;48.792;9.260;2022-10-17T05:08:11;13.30;99.90
15357;DHT22;7778;48.792;9.260;2022-10-17T05:10:58;13.40;99.90
15357;DHT22;7778;48.792;9.260;2022-10-17T05:13:44;13.40;99.90
15357;DHT22;7778;48.792;9.260;2022-10-17T05:16:30;13.70;99.90
15357;DHT22;7778;48.792;9.260;2022-10-17T05:19:16;13.50;99.90
15357;DHT22;7778;48.792;9.260;2022-10-17T05:22:02;13.50;99.90
15357;DHT22;7778;48.792;9.260;2022-10-17T05:24:48;13.40;99.90
15357;DHT22;7778;48.792;9.260;2022-10-17T05:27:35;13.40;99.90
15357;DHT22;7778;48.792;9.260;2022-10-17T05:30:21;13.20;99.90
15357;DHT22;7778;48.792;9.260;2022-10-17T05:33:06;13.10;99.90
15357;DHT22;7778;48.792;9.260;2022-10-17T05:35:52;13.30;99.90
15357;DHT22;7778;48.792;9.260;2022-10-17T05:38:38;13.10;99.90
15357;DHT22;7778;48.792;9.260;2022-10-17T05:41:23;13.20;99.90
15357;DHT22;7778;48.792;9.260;2022-10-17T05:44:10;13.40;99.90
15357;DHT22;7778;48.792;9.260;2022-10-17T05:46:56;13.40;99.90
15357;DHT22;7778;48.792;9.260;2022-10-17T05:49:42;13.50;99.90
15357;DHT22;7778;48.792;9.260;2022-10-17T05:52:28;13.50;99.90
15357;DHT22;7778;48.792;9.260;2022-10-17T05:55:13;13.50;99.90
15357;DHT22;7778;48.792;9.260;2022-10-17T05:57:59;13.50;99.90
15357;DHT22;7778;48.792;9.260;2022-10-17T06:00:46;13.50;99.90
15357;DHT22;7778;48.792;9.260;2022-10-17T06:03:32;13.60;99.90
15357;DHT22;7778;48.792;9.260;2022-10-17T06:06:18;13.70;99.90
15357;DHT22;7778;48.792;9.260;2022-10-17T06:09:05;13.80;99.90
15357;DHT22;7778;48.792;9.260;2022-10-17T06:11:50;13.90;99.90
15357;DHT22;7778;48.792;9.260;2022-10-17T06:14:36;14.00;99.90
15357;DHT22;7778;48.792;9.260;2022-10-17T06:17:23;14.00;99.90
15357;DHT22;7778;48.792;9.260;2022-10-17T06:20:09;14.00;99.90
15357;DHT22;7778;48.792;9.260;2022-10-17T06:22:55;14.00;99.90
15357;DHT22;7778;48.792;9.260;2022-10-17T06:25:41;14.00;99.90
15357;DHT22;7778;48.792;9.260;2022-10-17T06:28:27;14.00;99.90
15357;DHT22;7778;48.792;9.260;2022-10-17T06:31:14;14.20;99.90
15357;DHT22;7778;48.792;9.260;2022-10-17T06:34:02;14.20;99.90
15357;DHT22;7778;48.792;9.260;2022-10-17T06:36:48;14.40;99.90
15357;DHT22;7778;48.792;9.260;2022-10-17T06:39:34;14.40;99.90
15357;DHT22;7778;48.792;9.260;2022-10-17T06:42:19;14.40;99.90
15357;DHT22;7778;48.792;9.260;2022-10-17T06:45:06;14.50;99.90
15357;DHT22;7778;48.792;9.260;2022-10-17T06:47:52;14.30;99.90
15357;DHT22;7778;48.792;9.260;2022-10-17T06:50:39;14.30;99.90
15357;DHT22;7778;48.792;9.260;2022-10-17T06:53:26;14.20;99.90
15357;DHT22;7778;48.792;9.260;2022-10-17T06:56:12;14.10;99.90
15357;DHT22;7778;48.792;9.260;2022-10-17T06:58:58;14.00;99.90
15357;DHT22;7778;48.792;9.260;2022-10-17T07:01:43;14.00;99.90
15357;DHT22;7778;48.792;9.260;2022-10-17T07:04:29;14.00;99.90
15357;DHT22;7778;48.792;9.260;2022-10-17T07:07:17;14.00;99.90
15357;DHT22;7778;48.792;9.260;2022-10-17T07:10:02;13.90;99.90
15357;DHT22;7778;48.792;9.260;2022-10-17T07:12:51;13.90;99.90
15357;DHT22;7778;48.792;9.260;2022-10-17T07:15:37;13.70;99.90
15357;DHT22;7778;48.792;9.260;2022-10-17T07:18:23;13.70;99.90
15357;DHT22;7778;48.792;9.260;2022-10-17T07:21:09;13.70;99.90
15357;DHT22;7778;48.792;9.260;2022-10-17T07:23:56;13.90;99.90
15357;DHT22;7778;48.792;9.260;2022-10-17T07:26:42;14.10;99.90
15357;DHT22;7778;48.792;9.260;2022-10-17T07:29:28;14.30;99.90
15357;DHT22;7778;48.792;9.260;2022-10-17T07:32:13;14.50;99.90
15357;DHT22;7778;48.792;9.260;2022-10-17T07:34:59;14.60;99.90
15357;DHT22;7778;48.792;9.260;2022-10-17T07:37:45;14.70;99.90
15357;DHT22;7778;48.792;9.260;2022-10-17T07:40:32;14.90;99.90
15357;DHT22;7778;48.792;9.260;2022-10-17T07:43:18;15.00;99.90
15357;DHT22;7778;48.792;9.260;2022-10-17T07:46:04;15.10;99.90
15357;DHT22;7778;48.792;9.260;2022-10-17T07:48:51;15.20;99.90
15357;DHT22;7778;48.792;9.260;2022-10-17T07:51:37;15.20;99.90
15357;DHT22;7778;48.792;9.260;2022-10-17T07:54:23;15.20;99.90
15357;DHT22;7778;48.792;9.260;2022-10-17T07:57:10;15.20;99.90
15357;DHT22;7778;48.792;9.260;2022-10-17T07:59:55;15.50;99.90
15357;DHT22;7778;48.792;9.260;2022-10-17T08:02:41;15.60;99.90
15357;DHT22;7778;48.792;9.260;2022-10-17T08:05:27;15.80;99.90
15357;DHT22;7778;48.792;9.260;2022-10-17T08:08:13;15.90;99.90
15357;DHT22;7778;48.792;9.260;2022-10-17T08:11:02;16.00;99.90
15357;DHT22;7778;48.792;9.260;2022-10-17T08:13:50;16.20;99.90
15357;DHT22;7778;48.792;9.260;2022-10-17T08:16:36;16.40;99.90
15357;DHT22;7778;48.792;9.260;2022-10-17T08:19:22;16.80;99.90
15357;DHT22;7778;48.792;9.260;2022-10-17T08:22:08;17.90;99.90
15357;DHT22;7778;48.792;9.260;2022-10-17T08:24:54;19.30;99.90
15357;DHT22;7778;48.792;9.260;2022-10-17T08:27:39;20.10;99.90
15357;DHT22;7778;48.792;9.260;2022-10-17T08:30:26;20.90;99.90
15357;DHT22;7778;48.792;9.260;2022-10-17T08:33:13;21.50;99.90
15357;DHT22;7778;48.792;9.260;2022-10-17T08:35:59;22.10;99.90
15357;DHT22;7778;48.792;9.260;2022-10-17T08:38:45;22.90;99.90
15357;DHT22;7778;48.792;9.260;2022-10-17T08:41:48;22.80;99.90
15357;DHT22;7778;48.792;9.260;2022-10-17T08:44:51;22.70;99.90
15357;DHT22;7778;48.792;9.260;2022-10-17T08:47:45;22.30;99.90
15357;DHT22;7778;48.792;9.260;2022-10-17T08:50:37;22.20;99.90
15357;DHT22;7778;48.792;9.260;2022-10-17T08:53:29;22.70;99.90
15357;DHT22;7778;48.792;9.260;2022-10-17T08:56:19;23.00;99.90
15357;DHT22;7778;48.792;9.260;2022-10-17T08:59:10;23.60;99.90
15357;DHT22;7778;48.792;9.260;2022-10-17T09:02:02;24.30;99.90
15357;DHT22;7778;48.792;9.260;2022-10-17T09:04:59;25.00;99.90
15357;DHT22;7778;48.792;9.260;2022-10-17T09:08:02;25.40;99.90
15357;DHT22;7778;48.792;9.260;2022-10-17T09:10:56;25.40;99.90
15357;DHT22;7778;48.792;9.260;2022-10-17T09:13:54;25.00;99.90
15357;DHT22;7778;48.792;9.260;2022-10-17T09:16:54;25.50;99.90
15357;DHT22;7778;48.792;9.260;2022-10-17T09:19:56;25.30;99.90
15357;DHT22;7778;48.792;9.260;2022-10-17T09:22:48;26.00;99.90
15357;DHT22;7778;48.792;9.260;2022-10-17T09:25:41;26.10;99.90
15357;DHT22;7778;48.792;9.260;2022-10-17T09:28:31;25.30;99.90
15357;DHT22;7778;48.792;9.260;2022-10-17T09:31:22;25.50;99.90
15357;DHT22;7778;48.792;9.260;2022-10-17T09:34:10;25.30;99.90
15357;DHT22;7778;48.792;9.260;2022-10-17T09:36:59;25.30;99.90
15357;DHT22;7778;48.792;9.260;2022-10-17T09:39:45;25.40;99.90
15357;DHT22;7778;48.792;9.260;2022-10-17T09:42:33;25.00;99.90
15357;DHT22;7778;48.792;9.260;2022-10-17T09:45:21;24.40;99.90
15357;DHT22;7778;48.792;9.260;2022-10-17T09:48:16;24.30;99.90
15357;DHT22;7778;48.792;9.260;2022-10-17T09:51:06;24.60;99.90
15357;DHT22;7778;48.792;9.260;2022-10-17T09:53:56;25.10;99.90
15357;DHT22;7778;48.792;9.260;2022-10-17T09:57:00;25.50;99.90
15357;DHT22;7778;48.792;9.260;2022-10-17T09:59:56;26.20;99.90
15357;DHT22;7778;48.792;9.260;2022-10-17T10:02:43;26.40;99.90
15357;DHT22;7778;48.792;9.260;2022-10-17T10:05:28;26.50;99.90
15357;DHT22;7778;48.792;9.260;2022-10-17T10:08:15;26.30;99.90
15357;DHT22;7778;48.792;9.260;2022-10-17T10:11:05;26.10;99.90
15357;DHT22;7778;48.792;9.260;2022-10-17T10:13:52;25.70;99.90
15357;DHT22;7778;48.792;9.260;2022-10-17T10:16:41;25.90;99.90
15357;DHT22;7778;48.792;9.260;2022-10-17T10:19:30;25.60;99.90
15357;DHT22;7778;48.792;9.260;2022-10-17T10:22:18;25.60;99.90
15357;DHT22;7778;48.792;9.260;2022-10-17T10:25:13;25.70;99.90
15357;DHT22;7778;48.792;9.260;2022-10-17T10:28:09;25.80;99.90
15357;DHT22;7778;48.792;9.260;2022-10-17T10:30:57;26.10;99.90
15357;DHT22;7778;48.792;9.260;2022-10-17T10:33:44;26.90;99.90
15357;DHT22;7778;48.792;9.260;2022-10-17T10:36:50;26.50;99.90
15357;DHT22;7778;48.792;9.260;2022-10-17T10:39:46;26.50;99.90
15357;DHT22;7778;48.792;9.260;2022-10-17T10:42:35;26.50;99.90
15357;DHT22;7778;48.792;9.260;2022-10-17T10:45:26;26.70;99.90
15357;DHT22;7778;48.792;9.260;2022-10-17T10:48:18;26.70;99.90
15357;DHT22;7778;48.792;9.260;2022-10-17T10:51:11;26.20;99.90
15357;DHT22;7778;48.792;9.260;2022-10-17T10:54:01;25.80;99.90
15357;DHT22;7778;48.792;9.260;2022-10-17T10:56:52;25.80;99.90
15357;DHT22;7778;48.792;9.260;2022-10-17T10:59:42;26.00;99.90
15357;DHT22;7778;48.792;9.260;2022-10-17T11:02:37;26.30;99.90
15357;DHT22;7778;48.792;9.260;2022-10-17T11:05:36;26.50;99.90
15357;DHT22;7778;48.792;9.260;2022-10-17T11:08:31;26.90;99.90
15357;DHT22;7778;48.792;9.260;2022-10-17T11:11:27;27.30;99.90
15357;DHT22;7778;48.792;9.260;2022-10-17T11:14:18;28.10;99.90
15357;DHT22;7778;48.792;9.260;2022-10-17T11:17:20;28.30;99.90
15357;DHT22;7778;48.792;9.260;2022-10-17T11:20:21;28.50;99.90
15357;DHT22;7778;48.792;9.260;2022-10-17T11:23:16;28.70;99.90
15357;DHT22;7778;48.792;9.260;2022-10-17T11:26:07;28.50;99.90
15357;DHT22;7778;48.792;9.260;2022-10-17T11:29:01;28.10;99.90
15357;DHT22;7778;48.792;9.260;2022-10-17T11:31:51;27.90;99.90
15357;DHT22;7778;48.792;9.260;2022-10-17T11:34:41;27.80;99.90
15357;DHT22;7778;48.792;9.260;2022-10-17T11:37:34;27.50;99.90
15357;DHT22;7778;48.792;9.260;2022-10-17T11:40:28;27.00;99.90
15357;DHT22;7778;48.792;9.260;2022-10-17T11:43:19;26.50;99.90
15357;DHT22;7778;48.792;9.260;2022-10-17T11:46:17;26.10;99.90
15357;DHT22;7778;48.792;9.260;2022-10-17T11:49:11;26.00;99.90
15357;DHT22;7778;48.792;9.260;2022-10-17T11:52:09;26.30;99.90
15357;DHT22;7778;48.792;9.260;2022-10-17T11:55:11;26.40;99.90
15357;DHT22;7778;48.792;9.260;2022-10-17T11:58:11;26.50;99.90
15357;DHT22;7778;48.792;9.260;2022-10-17T12:01:15;26.70;99.90
15357;DHT22;7778;48.792;9.260;2022-10-17T12:04:29;26.80;99.90
15357;DHT22;7778;48.792;9.260;2022-10-17T12:07:35;26.70;99.90
15357;DHT22;7778;48.792;9.260;2022-10-17T12:10:35;26.70;99.90
15357;DHT22;7778;48.792;9.260;2022-10-17T12:13:49;26.70;99.90
15357;DHT22;7778;48.792;9.260;2022-10-17T12:16:45;26.70;99.90
15357;DHT22;7778;48.792;9.260;2022-10-17T12:19:32;26.70;99.90
15357;DHT22;7778;48.792;9.260;2022-10-17T12:22:21;26.70;99.90
15357;DHT22;7778;48.792;9.260;2022-10-17T12:25:16;26.40;99.90
15357;DHT22;7778;48.792;9.260;2022-10-17T12:28:16;26.40;99.90
15357;DHT22;7778;48.792;9.260;2022-10-17T12:31:08;26.40;99.90
15357;DHT22;7778;48.792;9.260;2022-10-17T12:33:57;26.50;99.90
15357;DHT22;7778;48.792;9.260;2022-10-17T12:36:44;26.50;99.90
15357;DHT22;7778;48.792;9.260;2022-10-17T12:39:49;26.50;99.90
15357;DHT22;7778;48.792;9.260;2022-10-17T12:42:49;26.50;99.90
15357;DHT22;7778;48.792;9.260;2022-10-17T12:45:48;26.30;99.90
15357;DHT22;7778;48.792;9.260;2022-10-17T12:49:18;26.30;99.90
15357;DHT22;7778;48.792;9.260;2022-10-17T12:52:51;26.20;99.90
15357;DHT22;7778;48.792;9.260;2022-10-17T12:55:42;26.00;99.90
15357;DHT22;7778;48.792;9.260;2022-10-17T12:58:29;25.90;99.90
15357;DHT22;7778;48.792;9.260;2022-10-17T13:01:21;25.80;99.90
15357;DHT22;7778;48.792;9.260;2022-10-17T13:04:10;25.80;99.90
15357;DHT22;7778;48.792;9.260;2022-10-17T13:06:57;25.80;99.90
15357;DHT22;7778;48.792;9.260;2022-10-17T13:09:44;25.80;99.90
15357;DHT22;7778;48.792;9.260;2022-10-17T13:12:33;25.80;99.90
15357;DHT22;7778;48.792;9.260;2022-10-17T13:15:21;25.80;99.90
15357;DHT22;7778;48.792;9.260;2022-10-17T13:18:18;25.70;99.90
15357;DHT22;7778;48.792;9.260;2022-10-17T13:21:14;25.70;99.90
15357;DHT22;7778;48.792;9.260;2022-10-17T13:24:00;25.70;99.90
15357;DHT22;7778;48.792;9.260;2022-10-17T13:26:46;25.70;99.90
15357;DHT22;7778;48.792;9.260;2022-10-17T13:29:32;25.60;99.90
15357;DHT22;7778;48.792;9.260;2022-10-17T13:32:18;25.60;99.90
15357;DHT22;7778;48.792;9.260;2022-10-17T13:35:07;25.70;99.90
15357;DHT22;7778;48.792;9.260;2022-10-17T13:37:55;25.40;99.90
15357;DHT22;7778;48.792;9.260;2022-10-17T13:40:42;25.10;99.90
15357;DHT22;7778;48.792;9.260;2022-10-17T13:43:31;24.80;99.90
15357;DHT22;7778;48.792;9.260;2022-10-17T13:46:26;24.70;99.90
15357;DHT22;7778;48.792;9.260;2022-10-17T13:49:21;24.60;99.90
15357;DHT22;7778;48.792;9.260;2022-10-17T13:52:17;24.50;99.90
15357;DHT22;7778;48.792;9.260;2022-10-17T13:55:07;24.50;99.90
15357;DHT22;7778;48.792;9.260;2022-10-17T13:58:08;24.40;99.90
15357;DHT22;7778;48.792;9.260;2022-10-17T14:00:55;24.40;99.90
15357;DHT22;7778;48.792;9.260;2022-10-17T14:03:41;24.30;99.90
15357;DHT22;7778;48.792;9.260;2022-10-17T14:06:29;24.30;99.90
15357;DHT22;7778;48.792;9.260;2022-10-17T14:09:21;24.30;99.90
15357;DHT22;7778;48.792;9.260;2022-10-17T14:12:10;24.30;99.90
15357;DHT22;7778;48.792;9.260;2022-10-17T14:14:56;24.20;99.90
15357;DHT22;7778;48.792;9.260;2022-10-17T14:17:43;24.10;99.90
15357;DHT22;7778;48.792;9.260;2022-10-17T14:20:30;24.10;99.90
15357;DHT22;7778;48.792;9.260;2022-10-17T14:23:36;24.20;99.90
15357;DHT22;7778;48.792;9.260;2022-10-17T14:26:25;24.20;99.90
15357;DHT22;7778;48.792;9.260;2022-10-17T14:29:23;24.10;99.90
15357;DHT22;7778;48.792;9.260;2022-10-17T14:32:13;24.00;99.90
15357;DHT22;7778;48.792;9.260;2022-10-17T14:35:02;24.00;99.90
15357;DHT22;7778;48.792;9.260;2022-10-17T14:37:51;23.90;99.90
15357;DHT22;7778;48.792;9.260;2022-10-17T14:40:48;23.80;99.90
15357;DHT22;7778;48.792;9.260;2022-10-17T14:43:37;23.80;99.90
15357;DHT22;7778;48.792;9.260;2022-10-17T14:46:23;23.70;99.90
15357;DHT22;7778;48.792;9.260;2022-10-17T14:49:16;23.70;99.90
15357;DHT22;7778;48.792;9.260;2022-10-17T14:52:12;23.60;99.90
15357;DHT22;7778;48.792;9.260;2022-10-17T14:55:22;23.60;99.90
15357;DHT22;7778;48.792;9.260;2022-10-17T14:58:16;23.60;99.90
15357;DHT22;7778;48.792;9.260;2022-10-17T15:01:04;23.60;99.90
15357;DHT22;7778;48.792;9.260;2022-10-17T15:03:50;23.50;99.90
15357;DHT22;7778;48.792;9.260;2022-10-17T15:06:36;23.40;99.90
15357;DHT22;7778;48.792;9.260;2022-10-17T15:09:23;23.30;99.90
15357;DHT22;7778;48.792;9.260;2022-10-17T15:12:13;23.30;99.90
15357;DHT22;7778;48.792;9.260;2022-10-17T15:15:00;23.20;99.90
15357;DHT22;7778;48.792;9.260;2022-10-17T15:17:47;23.10;99.90
15357;DHT22;7778;48.792;9.260;2022-10-17T15:20:33;23.10;99.90
15357;DHT22;7778;48.792;9.260;2022-10-17T15:23:19;23.10;99.90
15357;DHT22;7778;48.792;9.260;2022-10-17T15:26:14;23.10;99.90
15357;DHT22;7778;48.792;9.260;2022-10-17T15:29:01;23.10;99.90
15357;DHT22;7778;48.792;9.260;2022-10-17T15:31:47;23.00;99.90
15357;DHT22;7778;48.792;9.260;2022-10-17T15:34:34;23.10;99.90
15357;DHT22;7778;48.792;9.260;2022-10-17T15:37:22;23.10;99.90
15357;DHT22;7778;48.792;9.260;2022-10-17T15:40:14;23.10;99.90
15357;DHT22;7778;48.792;9.260;2022-10-17T15:43:00;23.00;99.90
15357;DHT22;7778;48.792;9.260;2022-10-17T15:45:46;23.00;99.90
15357;DHT22;7778;48.792;9.260;2022-10-17T15:48:32;22.90;99.90
15357;DHT22;7778;48.792;9.260;2022-10-17T15:51:19;22.90;99.90
15357;DHT22;7778;48.792;9.260;2022-10-17T15:54:06;22.80;99.90
15357;DHT22;7778;48.792;9.260;2022-10-17T15:56:53;22.70;99.90
15357;DHT22;7778;48.792;9.260;2022-10-17T15:59:39;22.70;99.90
15357;DHT22;7778;48.792;9.260;2022-10-17T16:02:25;22.60;99.90
15357;DHT22;7778;48.792;9.260;2022-10-17T16:05:15;22.50;99.90
15357;DHT22;7778;48.792;9.260;2022-10-17T16:08:11;22.40;99.90
15357;DHT22;7778;48.792;9.260;2022-10-17T16:11:00;22.30;99.90
15357;DHT22;7778;48.792;9.260;2022-10-17T16:13:49;22.20;99.90
15357;DHT22;7778;48.792;9.260;2022-10-17T16:16:37;22.00;99.90
15357;DHT22;7778;48.792;9.260;2022-10-17T16:19:23;21.80;99.90
15357;DHT22;7778;48.792;9.260;2022-10-17T16:22:19;21.60;99.90
15357;DHT22;7778;48.792;9.260;2022-10-17T16:25:19;21.40;99.90
15357;DHT22;7778;48.792;9.260;2022-10-17T16:28:06;21.30;99.90
15357;DHT22;7778;48.792;9.260;2022-10-17T16:30:52;21.30;99.90
15357;DHT22;7778;48.792;9.260;2022-10-17T16:33:38;21.30;99.90
15357;DHT22;7778;48.792;9.260;2022-10-17T16:36:23;21.10;99.90
15357;DHT22;7778;48.792;9.260;2022-10-17T16:39:09;21.00;99.90
15357;DHT22;7778;48.792;9.260;2022-10-17T16:41:56;20.90;99.90
15357;DHT22;7778;48.792;9.260;2022-10-17T16:44:42;20.70;99.90
15357;DHT22;7778;48.792;9.260;2022-10-17T16:50:17;20.50;99.90
15357;DHT22;7778;48.792;9.260;2022-10-17T16:53:04;20.40;99.90
15357;DHT22;7778;48.792;9.260;2022-10-17T16:55:58;20.30;99.90
15357;DHT22;7778;48.792;9.260;2022-10-17T16:58:46;20.20;99.90
15357;DHT22;7778;48.792;9.260;2022-10-17T17:01:32;20.10;99.90
15357;DHT22;7778;48.792;9.260;2022-10-17T17:04:18;20.00;99.90
15357;DHT22;7778;48.792;9.260;2022-10-17T17:07:03;19.90;99.90
15357;DHT22;7778;48.792;9.260;2022-10-17T17:09:49;19.90;99.90
15357;DHT22;7778;48.792;9.260;2022-10-17T17:12:36;19.80;99.90
15357;DHT22;7778;48.792;9.260;2022-10-17T17:15:23;19.70;99.90
15357;DHT22;7778;48.792;9.260;2022-10-17T17:18:09;19.60;99.90
15357;DHT22;7778;48.792;9.260;2022-10-17T17:20:57;19.60;99.90
15357;DHT22;7778;48.792;9.260;2022-10-17T17:23:43;19.70;99.90
15357;DHT22;7778;48.792;9.260;2022-10-17T17:26:33;19.60;99.90
15357;DHT22;7778;48.792;9.260;2022-10-17T17:29:20;19.50;99.90
15357;DHT22;7778;48.792;9.260;2022-10-17T17:32:08;19.40;99.90
15357;DHT22;7778;48.792;9.260;2022-10-17T17:34:54;19.30;99.90
15357;DHT22;7778;48.792;9.260;2022-10-17T17:37:39;19.20;99.90
15357;DHT22;7778;48.792;9.260;2022-10-17T17:40:25;19.20;99.90
15357;DHT22;7778;48.792;9.260;2022-10-17T17:43:10;19.10;99.90
15357;DHT22;7778;48.792;9.260;2022-10-17T17:45:56;19.10;99.90
15357;DHT22;7778;48.792;9.260;2022-10-17T17:48:47;19.00;99.90
15357;DHT22;7778;48.792;9.260;2022-10-17T17:51:34;18.90;99.90
15357;DHT22;7778;48.792;9.260;2022-10-17T17:54:20;18.70;99.90
15357;DHT22;7778;48.792;9.260;2022-10-17T17:57:06;18.80;99.90
15357;DHT22;7778;48.792;9.260;2022-10-17T17:59:52;19.00;99.90
15357;DHT22;7778;48.792;9.260;2022-10-17T18:02:37;18.70;99.90
15357;DHT22;7778;48.792;9.260;2022-10-17T18:05:26;18.80;99.90
15357;DHT22;7778;48.792;9.260;2022-10-17T18:08:12;18.60;99.90
15357;DHT22;7778;48.792;9.260;2022-10-17T18:10:57;18.70;99.90